Oswego Center, New York
Current Conditions -  °F | °C
As of 11:54 PM on Sunday 21 Dec 2014 (Local Time) from KFZY Reporting Station
Haze Haze  
Wind Chill: 30°   Ceiling: 2200
Heat Index: 30°   Visibility: 6mi
Dew Point: 25°   Wind: 3mph
Humidity: 82%   Direction: 110°ESE
Pressure: 30.32"   Gusts: NA
Location:  43.4571°N, 76.4163°W
Report Text: KFZY 220454Z AUTO 11003KT 6SM HZ OVC022 M01/M04 A3032 RMK AO2 SLP273 T10111039 400001039
Loading
Personal Weather Stations






























Interactive Weather Map New forecast layout! Learn more

10-Day Weather Forecast

Advertisements
Track Severe Weather on mobile